createdAt,value
2024-01-22T00:02:53.350Z,101545.08
2024-01-22T00:07:53.209Z,101539.08
2024-01-22T00:12:53.345Z,101528.34
2024-01-22T00:17:53.312Z,101517.81
2024-01-22T00:22:53.169Z,101510.61
2024-01-22T00:27:53.306Z,101499.5
2024-01-22T00:32:53.326Z,101502.48
2024-01-22T00:37:53.154Z,101498.08
2024-01-22T00:42:59.774Z,101475.66
2024-01-22T00:47:53.225Z,101475.66
2024-01-22T00:52:53.307Z,101461.78
2024-01-22T00:57:54.915Z,101459.58
2024-01-22T01:02:53.143Z,101443.04
2024-01-22T01:07:53.174Z,101454.75
2024-01-22T01:12:53.336Z,101448.24
2024-01-22T01:17:53.279Z,101429.69
2024-01-22T01:22:53.352Z,101418.69
2024-01-22T01:27:54.955Z,101414.86
2024-01-22T01:32:53.547Z,101419.95
2024-01-22T01:37:53.089Z,101423.38
2024-01-22T01:42:55.082Z,101433.14
2024-01-22T01:47:53.537Z,101419.36
2024-01-22T01:52:54.192Z,101411.37999999999
2024-01-22T01:58:00.528Z,101412.98000000001
2024-01-22T02:02:53.368Z,101419.12
2024-01-22T02:07:53.115Z,101433.04000000001
2024-01-22T02:12:54.688Z,101427.37
2024-01-22T02:17:54.493Z,101413.58
2024-01-22T02:22:54.217Z,101419.94
2024-01-22T02:27:54.914Z,101414.29000000001
2024-01-22T02:32:53.280Z,101409.59
2024-01-22T02:37:53.076Z,101417.53
2024-01-22T02:42:53.291Z,101403.23
2024-01-22T02:47:55.339Z,101389.15
2024-01-22T02:52:53.021Z,101377.06
2024-01-22T02:57:53.256Z,101353.91
2024-01-22T03:02:53.216Z,101348.85
2024-01-22T03:07:53.059Z,101330.76999999999
2024-01-22T03:12:53.045Z,101331.55
2024-01-22T03:17:53.196Z,101327.04
2024-01-22T03:22:52.987Z,101323.8
2024-01-22T03:27:53.407Z,101329.74
2024-01-22T03:32:53.477Z,101340.66
2024-01-22T03:37:53.021Z,101325.68
2024-01-22T03:42:53.048Z,101327.20000000001
2024-01-22T03:47:53.296Z,101320.14
2024-01-22T03:52:53.038Z,101308.69
2024-01-22T03:57:52.989Z,101296.28
2024-01-22T04:02:55.123Z,101303.03
2024-01-22T04:07:52.930Z,101304.49
2024-01-22T04:12:54.905Z,101296.88
2024-01-22T04:17:55.140Z,101296.89
2024-01-22T04:22:52.970Z,101283.58
2024-01-22T04:27:55.149Z,101277.23
2024-01-22T04:32:54.932Z,101263.81
2024-01-22T04:37:53.407Z,101258.14
2024-01-22T04:42:52.911Z,101253.63
2024-01-22T04:47:53.071Z,101246.24
2024-01-22T04:52:52.934Z,101244.61
2024-01-22T04:57:52.909Z,101228.41
2024-01-22T05:02:54.995Z,101214.89
2024-01-22T05:07:52.898Z,101199.31
2024-01-22T05:12:53.126Z,101205.03
2024-01-22T05:17:53.159Z,101211.45
2024-01-22T05:22:52.915Z,101201.15
2024-01-22T05:27:53.052Z,101184.82
2024-01-22T05:32:53.766Z,101177.81
2024-01-22T05:37:52.842Z,101175.14
2024-01-22T05:42:52.972Z,101180.98
2024-01-22T05:47:54.703Z,101178.34
2024-01-22T05:52:53.354Z,101162.7
2024-01-22T05:57:52.863Z,101154.67
2024-01-22T06:02:54.492Z,101135.20999999999
2024-01-22T06:07:52.844Z,101132.44
2024-01-22T06:12:53.287Z,101134.69
2024-01-22T06:17:55.139Z,101120.94
2024-01-22T06:22:52.898Z,101100.51
2024-01-22T06:27:52.850Z,101086.94
2024-01-22T06:32:54.994Z,101066.49
2024-01-22T06:37:52.876Z,101058.33
2024-01-22T06:42:52.879Z,101040.47
2024-01-22T06:47:53.179Z,101030.88
2024-01-22T06:52:52.937Z,101019.76
2024-01-22T06:57:52.834Z,101045.47
2024-01-22T07:02:53.102Z,101027.61
2024-01-22T07:07:53.387Z,101022.33
2024-01-22T07:12:52.749Z,101017.47
2024-01-22T07:17:54.743Z,101041.23
2024-01-22T07:22:54.030Z,101036.65999999999
2024-01-22T07:27:52.808Z,101022.47
2024-01-22T07:32:54.847Z,101034.78
2024-01-22T07:37:52.763Z,101044.16
2024-01-22T07:42:52.865Z,101051.75
2024-01-22T07:47:54.742Z,101037.49
2024-01-22T07:52:52.749Z,101028.51000000001
2024-01-22T07:57:52.818Z,101029.37
2024-01-22T08:02:52.954Z,101029.9
2024-01-22T08:07:52.719Z,101005.74
2024-01-22T08:12:52.780Z,100987.64
2024-01-22T08:17:52.966Z,100976.72
2024-01-22T08:22:52.914Z,100973.65999999999
2024-01-22T08:27:53.230Z,100976.39
2024-01-22T08:32:54.222Z,100970.62
2024-01-22T08:37:52.820Z,100957.26
2024-01-22T08:42:54.434Z,100945.31
2024-01-22T08:47:54.915Z,100927.72
2024-01-22T08:52:53.193Z,100925.58
2024-01-22T08:57:54.301Z,100921.01
2024-01-22T09:02:53.078Z,100914.35
2024-01-22T09:07:53.842Z,100905.97
2024-01-22T09:12:52.904Z,100900.39
2024-01-22T09:17:55.271Z,100891.6
2024-01-22T09:22:53.020Z,100884.05
2024-01-22T09:27:53.135Z,100872.41
2024-01-22T09:32:58.023Z,100854.21
2024-01-22T09:37:53.090Z,100855.92
2024-01-22T09:42:53.230Z,100852.95999999999
2024-01-22T09:47:53.026Z,100847.91
2024-01-22T09:52:53.175Z,100849.25
2024-01-22T09:57:54.076Z,100830.45
2024-01-22T10:02:53.840Z,100803.94
2024-01-22T10:07:52.973Z,100780.98
2024-01-22T10:12:56.637Z,100763.86
2024-01-22T10:17:53.240Z,100772.43999999999
2024-01-22T10:23:00.072Z,100738.45
2024-01-22T10:28:07.819Z,100727.04
2024-01-22T10:33:12.312Z,100705.24
2024-01-22T10:38:04.792Z,100677.13
2024-01-22T10:42:54.438Z,100677.13
2024-01-22T10:47:57.982Z,100613.51
2024-01-22T10:52:54.148Z,100628.8
2024-01-22T10:57:56.701Z,100623.1
2024-01-22T11:02:56.563Z,100629.24
2024-01-22T11:07:53.958Z,100623.32
2024-01-22T11:12:55.032Z,100618.44
2024-01-22T11:17:52.775Z,100587.37999999999
2024-01-22T11:23:00.187Z,100563.19
2024-01-22T11:28:00.900Z,100566.45999999999
2024-01-22T11:32:52.713Z,100566.45999999999
2024-01-22T11:37:52.604Z,100543.28
2024-01-22T11:42:54.653Z,100544.94
2024-01-22T11:47:52.644Z,100552.5
2024-01-22T11:52:59.642Z,100565.23
2024-01-22T11:57:52.644Z,100565.23
2024-01-22T12:02:57.203Z,100567.81
2024-01-22T12:07:52.604Z,100559.24
2024-01-22T12:12:54.632Z,100538.69
2024-01-22T12:17:53.638Z,100515.58
2024-01-22T12:22:56.680Z,100509.47
2024-01-22T12:28:03.066Z,100492.35
2024-01-22T12:32:53.457Z,100492.35
2024-01-22T12:37:52.602Z,100479.0
2024-01-22T12:42:59.135Z,100480.02
2024-01-22T12:47:52.729Z,100462.01999999999
2024-01-22T12:52:52.545Z,100468.04
2024-01-22T12:57:52.792Z,100478.75
2024-01-22T13:02:52.586Z,100444.64
2024-01-22T13:07:52.553Z,100440.73
2024-01-22T13:11:23.576Z,100438.51
2024-01-22T13:12:52.470Z,100438.51
2024-01-22T13:17:52.815Z,100411.86
2024-01-22T13:22:55.439Z,100417.61
2024-01-22T13:27:54.417Z,100403.23
2024-01-22T13:32:55.377Z,100390.73
2024-01-22T13:37:52.608Z,100380.3
2024-01-22T13:43:00.319Z,100392.76999999999
2024-01-22T13:47:53.658Z,100392.76999999999
2024-01-22T13:52:53.871Z,100367.74
2024-01-22T13:57:54.044Z,100363.84000000001
2024-01-22T14:02:52.468Z,100346.94
2024-01-22T14:07:54.682Z,100346.25
2024-01-22T14:12:52.404Z,100338.64
2024-01-22T14:17:52.903Z,100318.26999999999
2024-01-22T14:22:52.713Z,100326.54
2024-01-22T14:27:52.487Z,100335.13
2024-01-22T14:32:52.698Z,100325.05
2024-01-22T14:37:52.687Z,100330.25
2024-01-22T14:42:52.843Z,100323.86
2024-01-22T14:47:54.498Z,100312.40000000001
2024-01-22T14:52:52.936Z,100302.09
2024-01-22T14:57:52.570Z,100300.59
2024-01-22T15:02:52.425Z,100310.68000000001
2024-01-22T15:07:54.419Z,100287.22
2024-01-22T15:12:52.596Z,100276.9
2024-01-22T15:17:53.515Z,100280.39
2024-01-22T15:22:53.777Z,100264.31999999999
2024-01-22T15:27:52.562Z,100270.22
2024-01-22T15:32:53.751Z,100252.19
2024-01-22T15:37:52.657Z,100270.79
2024-01-22T15:42:52.436Z,100248.05
2024-01-22T15:47:52.445Z,100262.19
2024-01-22T15:52:55.846Z,100271.04000000001
2024-01-22T15:57:52.386Z,100264.54
2024-01-22T16:02:52.519Z,100260.46
2024-01-22T16:07:52.394Z,100258.39
2024-01-22T16:12:52.443Z,100253.18
2024-01-22T16:17:52.683Z,100249.92
2024-01-22T16:22:54.414Z,100241.24
2024-01-22T16:27:53.311Z,100250.31
2024-01-22T16:32:52.620Z,100248.36
2024-01-22T16:37:52.451Z,100235.46
2024-01-22T16:42:52.337Z,100236.92
2024-01-22T16:47:52.359Z,100270.29
2024-01-22T16:52:53.942Z,100236.51999999999
2024-01-22T16:57:52.296Z,100251.81
2024-01-22T17:02:52.626Z,100238.37
2024-01-22T17:07:54.325Z,100235.05
2024-01-22T17:12:52.282Z,100232.65
2024-01-22T17:17:53.275Z,100235.08
2024-01-22T17:22:52.525Z,100235.83
2024-01-22T17:27:52.875Z,100241.9
2024-01-22T17:32:52.424Z,100229.04999999999
2024-01-22T17:37:54.710Z,100219.59000000001
2024-01-22T17:42:52.247Z,100198.71
2024-01-22T17:47:52.387Z,100197.79999999999
2024-01-22T17:52:52.607Z,100187.98000000001
2024-01-22T17:57:52.263Z,100190.98
2024-01-22T18:02:52.343Z,100185.88
2024-01-22T18:07:54.613Z,100167.52
2024-01-22T18:12:52.394Z,100160.77
2024-01-22T18:17:52.503Z,100139.95
2024-01-22T18:22:52.881Z,100156.97
2024-01-22T18:27:52.288Z,100156.98
2024-01-22T18:32:52.301Z,100161.51
2024-01-22T18:37:54.539Z,100152.84
2024-01-22T18:42:52.426Z,100141.52
2024-01-22T18:47:52.486Z,100132.79
2024-01-22T18:52:55.367Z,100137.19
2024-01-22T18:57:52.170Z,100135.77
2024-01-22T19:02:54.785Z,100142.56
2024-01-22T19:08:04.167Z,100143.48
2024-01-22T19:12:52.139Z,100143.48
2024-01-22T19:17:52.321Z,100140.83
2024-01-22T19:22:55.979Z,100133.78
2024-01-22T19:27:52.248Z,100140.78
2024-01-22T19:32:52.414Z,100141.45999999999
2024-01-22T19:37:54.090Z,100113.19
2024-01-22T19:42:52.337Z,100115.61
2024-01-22T19:47:52.703Z,100105.40999999999
2024-01-22T19:52:52.539Z,100085.65999999999
2024-01-22T19:57:52.377Z,100097.55
2024-01-22T20:02:52.310Z,100096.01
2024-01-22T20:07:55.505Z,100097.39
2024-01-22T20:12:52.161Z,100096.94
2024-01-22T20:17:52.536Z,100097.47
2024-01-22T20:22:56.189Z,100094.8
2024-01-22T20:27:52.212Z,100092.85
2024-01-22T20:32:52.313Z,100086.47
2024-01-22T20:37:54.892Z,100093.62999999999
2024-01-22T20:42:52.241Z,100087.15
2024-01-22T20:47:54.211Z,100083.32
2024-01-22T20:52:53.842Z,100086.76000000001
2024-01-22T20:57:52.103Z,100084.99
2024-01-22T21:02:52.408Z,100094.02
2024-01-22T21:07:52.377Z,100101.59999999999
2024-01-22T21:12:53.453Z,100108.81000000001
2024-01-22T21:17:52.146Z,100108.51
2024-01-22T21:22:52.574Z,100101.22
2024-01-22T21:27:52.040Z,100111.45
2024-01-22T21:32:52.248Z,100112.73
2024-01-22T21:37:52.349Z,100113.47
2024-01-22T21:42:52.230Z,100124.77
2024-01-22T21:47:52.406Z,100130.45
2024-01-22T21:52:52.394Z,100140.68
2024-01-22T21:57:52.039Z,100147.14
2024-01-22T22:02:53.073Z,100153.74
2024-01-22T22:07:52.073Z,100162.57
2024-01-22T22:12:52.126Z,100179.63
2024-01-22T22:17:52.286Z,100183.06
2024-01-22T22:22:52.602Z,100185.28
2024-01-22T22:27:52.077Z,100191.04999999999
2024-01-22T22:32:57.447Z,100183.01
2024-01-22T22:37:55.041Z,100191.90999999999
2024-01-22T22:42:51.985Z,100188.95
2024-01-22T22:47:52.168Z,100192.33
2024-01-22T22:52:52.292Z,100195.81
2024-01-22T22:57:53.644Z,100205.55
2024-01-22T23:02:52.172Z,100201.48000000001
2024-01-22T23:07:52.632Z,100210.88
2024-01-22T23:12:51.975Z,100205.74
2024-01-22T23:17:52.052Z,100215.8
2024-01-22T23:22:52.386Z,100207.67
2024-01-22T23:27:51.957Z,100205.24
2024-01-22T23:32:52.273Z,100205.14
2024-01-22T23:37:58.650Z,100217.89
2024-01-22T23:42:52.148Z,100217.89
2024-01-22T23:47:53.072Z,100218.4
2024-01-22T23:52:52.221Z,100215.09
2024-01-22T23:57:52.014Z,100216.2
